Time;durP1;ratioP1;P1;durP2;ratioP2;P2;SDS_P1;SDS_P2;PMS_P1;PMS_P2;Temp;Humidity;BMP_temperature;BMP_pressure;BME280_temperature;BME280_humidity;BME280_pressure;Samples;Min_cycle;Max_cycle;Signal;HPM_P1;HPM_P2
2023/05/01 00:02:12;;;;;;;7.40;6.05;;;;;;;6.44;100.00;101942.78;5031899;28;20379;-74
2023/05/01 00:04:37;;;;;;;10.38;6.72;;;;;;;6.43;100.00;101932.28;5031538;28;20034;-73
2023/05/01 00:07:03;;;;;;;7.93;6.15;;;;;;;6.39;100.00;101931.63;5032361;28;20134;-75
2023/05/01 00:09:28;;;;;;;10.10;6.30;;;;;;;6.38;100.00;101932.53;5031546;28;20314;-74
2023/05/01 00:11:54;;;;;;;9.18;7.13;;;;;;;6.37;100.00;101928.19;5030046;28;20045;-74
2023/05/01 00:14:19;;;;;;;9.15;6.50;;;;;;;6.39;100.00;101923.69;5031817;28;20030;-73
2023/05/01 00:16:48;;;;;;;7.95;6.03;;;;;;;6.40;100.00;101919.25;5031476;28;20035;-74
2023/05/01 00:19:17;;;;;;;10.77;7.05;;;;;;;6.39;100.00;101917.53;5031526;28;20033;-74
2023/05/01 00:21:44;;;;;;;8.38;6.88;;;;;;;6.42;100.00;101920.88;5031241;28;20044;-74
2023/05/01 00:24:09;;;;;;;14.10;6.07;;;;;;;6.44;100.00;101915.50;5029847;28;20095;-75
2023/05/01 00:26:35;;;;;;;7.30;5.60;;;;;;;6.45;100.00;101914.53;5031454;28;20037;-74
2023/05/01 00:29:01;;;;;;;7.43;5.97;;;;;;;6.48;100.00;101917.03;5031635;28;20459;-74
2023/05/01 00:31:26;;;;;;;6.93;5.72;;;;;;;6.51;100.00;101916.84;5030302;28;20412;-74
2023/05/01 00:33:52;;;;;;;7.65;5.97;;;;;;;6.55;100.00;101914.88;5029617;28;20033;-74
2023/05/01 00:36:17;;;;;;;9.60;6.72;;;;;;;6.57;100.00;101913.00;5031312;28;20037;-74
2023/05/01 00:38:42;;;;;;;9.45;6.93;;;;;;;6.61;100.00;101911.88;5031437;28;20029;-75
2023/05/01 00:41:08;;;;;;;9.88;7.05;;;;;;;6.66;100.00;101908.03;5031425;28;20065;-75
2023/05/01 00:43:34;;;;;;;9.88;6.47;;;;;;;6.72;100.00;101901.56;5032433;28;20071;-74
2023/05/01 00:45:59;;;;;;;9.52;7.55;;;;;;;6.77;100.00;101904.78;5034918;28;20147;-74
2023/05/01 00:48:25;;;;;;;10.35;7.45;;;;;;;6.80;100.00;101893.19;5034953;28;20079;-74
2023/05/01 00:50:53;;;;;;;10.85;7.72;;;;;;;6.81;100.00;101890.44;5035085;28;20068;-74
2023/05/01 00:53:19;;;;;;;9.02;6.80;;;;;;;6.82;100.00;101886.88;5035018;28;20030;-73
2023/05/01 00:55:45;;;;;;;8.45;6.82;;;;;;;6.84;100.00;101881.50;5035381;28;20064;-75
2023/05/01 00:58:11;;;;;;;9.90;7.72;;;;;;;6.85;100.00;101878.75;5034215;28;20030;-75
2023/05/01 01:00:37;;;;;;;13.05;7.18;;;;;;;6.82;100.00;101871.00;5035467;28;20037;-74
2023/05/01 01:03:03;;;;;;;8.70;6.20;;;;;;;6.79;100.00;101868.53;5035283;28;20515;-74
2023/05/01 01:05:34;;;;;;;9.27;6.68;;;;;;;6.73;100.00;101855.63;5034907;28;20087;-74
2023/05/01 01:08:32;;;;;;;9.57;7.18;;;;;;;6.66;100.00;101847.22;5035272;28;20075;-74
2023/05/01 01:11:20;;;;;;;10.18;7.60;;;;;;;6.61;100.00;101845.78;5033201;28;20049;-74
2023/05/01 01:13:55;;;;;;;10.88;6.63;;;;;;;6.57;100.00;101849.53;5034439;28;20108;-74
2023/05/01 01:16:31;;;;;;;10.30;8.00;;;;;;;6.50;100.00;101839.31;5035199;28;20108;-75
2023/05/01 01:19:35;;;;;;;8.50;6.80;;;;;;;6.47;100.00;101841.28;5034532;28;20036;-76
2023/05/01 01:22:10;;;;;;;8.98;6.82;;;;;;;6.41;100.00;101837.19;5033204;28;20029;-75
2023/05/01 01:24:58;;;;;;;11.60;8.07;;;;;;;6.40;100.00;101829.34;5034434;28;20022;-74
2023/05/01 01:27:53;;;;;;;9.07;6.82;;;;;;;6.39;100.00;101831.16;5032875;28;20060;-75
2023/05/01 01:30:37;;;;;;;8.55;7.05;;;;;;;6.35;100.00;101830.47;5034638;28;20124;-75
2023/05/01 01:33:36;;;;;;;8.85;6.45;;;;;;;6.33;100.00;101828.88;5032515;28;20104;-74
2023/05/01 01:36:06;;;;;;;7.43;6.40;;;;;;;6.30;100.00;101823.72;5034084;28;20445;-75
2023/05/01 01:39:23;;;;;;;8.30;5.93;;;;;;;6.28;100.00;101817.69;5033553;28;20091;-74
2023/05/01 01:41:51;;;;;;;11.50;7.03;;;;;;;6.24;100.00;101814.38;5010893;28;20310;-74
2023/05/01 01:44:40;;;;;;;8.98;6.78;;;;;;;6.22;100.00;101810.09;5033577;28;20025;-75
2023/05/01 01:47:09;;;;;;;8.65;6.05;;;;;;;6.20;100.00;101815.47;5033760;28;20030;-75
2023/05/01 01:49:37;;;;;;;7.00;5.65;;;;;;;6.18;100.00;101812.09;5033501;28;20025;-75
2023/05/01 01:52:06;;;;;;;8.18;5.65;;;;;;;6.15;100.00;101804.31;5033565;28;20037;-76
2023/05/01 01:54:37;;;;;;;8.65;5.78;;;;;;;6.15;100.00;101810.47;5032829;28;20078;-75
2023/05/01 01:57:04;;;;;;;8.13;6.43;;;;;;;6.16;100.00;101800.72;5033088;28;20036;-76
2023/05/01 01:59:32;;;;;;;9.13;6.60;;;;;;;6.14;100.00;101798.19;5033849;28;20029;-75
2023/05/01 02:01:58;;;;;;;6.82;5.35;;;;;;;6.14;100.00;101802.63;5033295;28;20025;-74
2023/05/01 02:04:26;;;;;;;7.95;6.40;;;;;;;6.14;100.00;101795.53;5033242;28;20494;-74
2023/05/01 02:06:54;;;;;;;6.75;5.78;;;;;;;6.12;100.00;101797.44;5033331;28;20479;-74
2023/05/01 02:09:22;;;;;;;8.70;6.03;;;;;;;6.11;100.00;101789.59;5031704;28;20494;-75
2023/05/01 02:11:49;;;;;;;8.55;6.55;;;;;;;6.09;100.00;101783.50;5033255;28;20041;-75
2023/05/01 02:14:17;;;;;;;9.45;6.68;;;;;;;6.12;100.00;101789.50;5033078;28;20456;-75
2023/05/01 02:16:43;;;;;;;10.90;6.88;;;;;;;6.12;100.00;101776.28;5032892;28;20136;-73
2023/05/01 02:19:10;;;;;;;8.63;7.00;;;;;;;6.09;100.00;101771.19;5032640;28;20039;-74
2023/05/01 02:21:37;;;;;;;11.73;7.97;;;;;;;6.11;100.00;101776.38;5032927;28;20112;-75
2023/05/01 02:24:04;;;;;;;10.57;7.35;;;;;;;6.09;100.00;101776.47;5032814;28;20033;-75
2023/05/01 02:26:34;;;;;;;8.68;6.80;;;;;;;6.08;100.00;101769.47;5033531;28;20119;-75
2023/05/01 02:29:00;;;;;;;11.02;7.35;;;;;;;6.07;100.00;101765.09;5032912;28;20037;-73
2023/05/01 02:31:25;;;;;;;8.63;6.03;;;;;;;6.08;100.00;101763.34;5032762;28;20517;-74
2023/05/01 02:33:50;;;;;;;11.60;6.88;;;;;;;6.06;100.00;101762.56;5031057;28;20091;-74
2023/05/01 02:36:16;;;;;;;8.20;6.65;;;;;;;6.05;100.00;101753.78;5032461;28;20045;-74
2023/05/01 02:38:41;;;;;;;8.18;5.93;;;;;;;6.07;100.00;101754.53;5032434;28;20171;-74
2023/05/01 02:41:08;;;;;;;7.47;6.13;;;;;;;6.07;100.00;101754.53;5032806;28;20452;-74
2023/05/01 02:43:35;;;;;;;7.70;5.82;;;;;;;6.07;100.00;101751.91;5032397;28;20040;-74
2023/05/01 02:46:03;;;;;;;6.55;5.88;;;;;;;6.09;100.00;101749.16;5032416;28;20122;-75
2023/05/01 02:48:30;;;;;;;8.18;6.18;;;;;;;6.07;100.00;101743.97;5031028;28;20033;-76
2023/05/01 02:50:57;;;;;;;7.63;6.50;;;;;;;6.09;100.00;101741.25;5032139;28;20174;-74
2023/05/01 02:53:22;;;;;;;7.82;6.35;;;;;;;6.07;100.00;101743.13;5032698;28;20044;-74
2023/05/01 02:55:49;;;;;;;10.32;6.55;;;;;;;6.06;100.00;101737.00;5032366;28;20034;-74
2023/05/01 02:58:18;;;;;;;8.77;6.28;;;;;;;6.03;100.00;101737.19;5032288;28;20030;-74
2023/05/01 03:00:44;;;;;;;7.95;5.93;;;;;;;6.04;100.00;101733.56;5032281;28;20041;-75
2023/05/01 03:03:10;;;;;;;12.57;7.32;;;;;;;6.05;100.00;101731.81;5032188;28;20029;-74
2023/05/01 03:05:37;;;;;;;7.53;6.72;;;;;;;6.05;100.00;101727.38;5031693;28;20483;-74
2023/05/01 03:08:03;;;;;;;9.40;7.60;;;;;;;6.07;100.00;101725.47;5031945;28;20038;-74
2023/05/01 03:10:28;;;;;;;8.45;6.95;;;;;;;6.08;100.00;101726.34;5031851;28;20026;-74
2023/05/01 03:12:53;;;;;;;8.00;6.53;;;;;;;6.07;100.00;101719.34;5032304;28;20048;-74
2023/05/01 03:15:19;;;;;;;11.57;6.88;;;;;;;6.09;100.00;101723.63;5031952;28;20086;-75
2023/05/01 03:17:44;;;;;;;11.50;7.25;;;;;;;6.10;100.00;101719.16;5031786;28;20029;-73
2023/05/01 03:20:10;;;;;;;7.20;6.35;;;;;;;6.11;100.00;101720.88;5032057;28;20463;-75
2023/05/01 03:22:36;;;;;;;9.50;7.25;;;;;;;6.12;100.00;101723.44;5032030;28;20352;-74
2023/05/01 03:25:03;;;;;;;9.27;7.30;;;;;;;6.12;100.00;101710.22;5031754;28;20039;-74
2023/05/01 03:27:29;;;;;;;11.60;7.78;;;;;;;6.12;100.00;101704.06;5032600;28;20141;-74
2023/05/01 03:29:54;;;;;;;9.55;7.07;;;;;;;6.17;100.00;101702.03;5031688;28;20037;-75
2023/05/01 03:32:20;;;;;;;10.68;7.68;;;;;;;6.18;100.00;101701.09;5031745;28;20451;-74
2023/05/01 03:34:45;;;;;;;8.93;6.93;;;;;;;6.19;100.00;101694.84;5031804;28;20551;-75
2023/05/01 03:37:11;;;;;;;8.65;6.68;;;;;;;6.21;100.00;101698.28;5031858;28;20123;-74
2023/05/01 03:39:36;;;;;;;10.63;6.97;;;;;;;6.22;100.00;101693.81;5031673;28;20034;-75
2023/05/01 03:42:01;;;;;;;14.43;7.40;;;;;;;6.25;100.00;101698.94;5031475;28;20551;-76
2023/05/01 03:44:27;;;;;;;7.55;6.75;;;;;;;6.25;100.00;101691.84;5031351;28;20030;-75
2023/05/01 03:46:52;;;;;;;10.65;7.00;;;;;;;6.29;100.00;101692.53;5030725;28;20470;-74
2023/05/01 03:49:17;;;;;;;10.75;7.10;;;;;;;6.31;100.00;101688.84;5030154;28;20036;-74
2023/05/01 03:51:43;;;;;;;7.70;6.72;;;;;;;6.36;100.00;101688.59;5031520;28;20030;-74
2023/05/01 03:54:08;;;;;;;9.13;6.45;;;;;;;6.39;100.00;101688.41;5031579;28;20041;-75
2023/05/01 03:56:35;;;;;;;8.60;6.68;;;;;;;6.45;100.00;101687.16;5030223;28;20472;-75
2023/05/01 03:59:00;;;;;;;8.48;6.75;;;;;;;6.49;100.00;101691.34;5030254;28;20584;-75
2023/05/01 04:01:26;;;;;;;9.85;6.63;;;;;;;6.52;100.00;101684.09;5031929;28;20096;-75
2023/05/01 04:03:51;;;;;;;9.70;6.78;;;;;;;6.57;100.00;101682.94;5030090;28;20033;-76
2023/05/01 04:06:17;;;;;;;9.77;6.80;;;;;;;6.60;100.00;101688.91;5031484;28;20136;-75
2023/05/01 04:08:43;;;;;;;9.35;6.72;;;;;;;6.64;100.00;101681.63;5029894;28;20029;-74
2023/05/01 04:11:08;;;;;;;14.88;7.55;;;;;;;6.68;100.00;101683.16;5031472;28;20050;-75
2023/05/01 04:13:34;;;;;;;10.65;6.82;;;;;;;6.70;100.00;101679.47;5031287;28;20036;-75
2023/05/01 04:15:59;;;;;;;13.65;7.03;;;;;;;6.74;100.00;101677.47;5031410;28;20037;-75
2023/05/01 04:18:25;;;;;;;10.50;6.13;;;;;;;6.78;100.00;101678.16;5032919;28;20128;-75
2023/05/01 04:20:51;;;;;;;9.57;6.65;;;;;;;6.81;100.00;101680.63;5035186;28;20029;-74
2023/05/01 04:23:16;;;;;;;7.50;6.10;;;;;;;6.85;100.00;101674.19;5035682;28;20112;-75
2023/05/01 04:25:42;;;;;;;9.52;6.70;;;;;;;6.87;100.00;101677.59;5033960;28;20033;-76
2023/05/01 04:28:10;;;;;;;9.98;6.38;;;;;;;6.91;100.00;101676.44;5035616;28;20037;-74
2023/05/01 04:30:36;;;;;;;10.70;6.07;;;;;;;6.95;100.00;101679.75;5035010;28;20064;-75
2023/05/01 04:33:02;;;;;;;10.77;6.72;;;;;;;6.97;100.00;101672.56;5035008;28;20434;-75
2023/05/01 04:35:28;;;;;;;9.63;5.80;;;;;;;7.01;100.00;101669.63;5035163;28;20033;-74
2023/05/01 04:37:53;;;;;;;8.43;6.00;;;;;;;7.05;100.00;101671.16;5034945;28;20038;-74
2023/05/01 04:40:18;;;;;;;7.28;5.78;;;;;;;7.09;100.00;101669.19;5033678;28;20041;-75
2023/05/01 04:42:44;;;;;;;7.47;5.47;;;;;;;7.13;100.00;101672.47;5034706;28;20044;-75
2023/05/01 04:45:10;;;;;;;8.45;5.70;;;;;;;7.17;100.00;101666.88;5034621;28;20026;-76
2023/05/01 04:47:36;;;;;;;12.43;6.07;;;;;;;7.22;100.00;101671.88;5034681;28;20057;-76
2023/05/01 04:50:01;;;;;;;11.80;5.93;;;;;;;7.25;100.00;101661.09;5034400;28;20486;-75
2023/05/01 04:52:27;;;;;;;6.85;5.47;;;;;;;7.29;100.00;101665.25;5034649;28;20490;-75
2023/05/01 04:54:53;;;;;;;8.23;5.80;;;;;;;7.34;100.00;101668.44;5034675;28;20041;-75
2023/05/01 04:57:18;;;;;;;9.75;5.93;;;;;;;7.39;100.00;101663.72;5035221;28;20462;-75
2023/05/01 04:59:43;;;;;;;13.10;5.35;;;;;;;7.45;100.00;101661.63;5034920;28;20029;-76
2023/05/01 05:02:09;;;;;;;8.43;5.40;;;;;;;7.51;100.00;101659.44;5034585;28;20103;-74
2023/05/01 05:04:34;;;;;;;9.05;5.10;;;;;;;7.56;100.00;101657.34;5034422;28;20204;-75
2023/05/01 05:06:59;;;;;;;7.47;5.43;;;;;;;7.63;100.00;101664.88;5034467;28;20112;-75
2023/05/01 05:09:25;;;;;;;10.88;5.40;;;;;;;7.69;100.00;101667.16;5034912;28;20037;-75
2023/05/01 05:11:50;;;;;;;9.05;5.43;;;;;;;7.73;100.00;101668.63;5033251;28;20097;-76
2023/05/01 05:14:16;;;;;;;8.15;5.50;;;;;;;7.80;100.00;101664.63;5034569;28;20029;-74
2023/05/01 05:16:41;;;;;;;6.53;4.93;;;;;;;7.86;100.00;101666.88;5034396;28;20030;-76
2023/05/01 05:19:07;;;;;;;7.50;5.15;;;;;;;7.91;100.00;101664.78;5034878;28;20037;-76
2023/05/01 05:21:33;;;;;;;7.03;5.25;;;;;;;8.00;100.00;101667.75;5033923;28;20041;-75
2023/05/01 05:23:58;;;;;;;6.03;4.80;;;;;;;8.06;100.00;101668.22;5034031;28;20026;-74
2023/05/01 05:26:25;;;;;;;11.75;5.00;;;;;;;8.13;100.00;101668.66;5034145;28;20041;-74
2023/05/01 05:28:51;;;;;;;8.88;4.50;;;;;;;8.17;100.00;101669.31;5032401;28;20033;-75
2023/05/01 05:31:16;;;;;;;7.25;5.00;;;;;;;8.25;100.00;101672.28;5034068;28;20071;-76
2023/05/01 05:33:41;;;;;;;6.40;4.18;;;;;;;8.33;100.00;101663.78;5033970;28;20061;-76
2023/05/01 05:36:07;;;;;;;8.60;4.72;;;;;;;8.40;100.00;101668.56;5033380;28;20033;-74
2023/05/01 05:38:32;;;;;;;9.70;5.07;;;;;;;8.48;100.00;101668.09;5033746;28;20479;-75
2023/05/01 05:40:58;;;;;;;8.02;4.05;;;;;;;8.54;100.00;101669.47;5034103;28;20515;-75
2023/05/01 05:43:23;;;;;;;11.27;5.57;;;;;;;8.61;100.00;101668.09;5032405;28;20035;-75
2023/05/01 05:45:49;;;;;;;14.75;8.45;;;;;;;8.65;100.00;101665.13;5033809;28;20037;-76
2023/05/01 05:48:15;;;;;;;7.55;4.43;;;;;;;8.72;100.00;101664.69;5034648;28;20033;-74
2023/05/01 05:50:40;;;;;;;6.50;4.80;;;;;;;8.77;100.00;101663.41;5034518;28;20086;-75
2023/05/01 05:53:05;;;;;;;9.88;4.13;;;;;;;8.85;100.00;101657.56;5034436;28;20463;-75
2023/05/01 05:55:31;;;;;;;7.65;4.07;;;;;;;8.93;100.00;101657.88;5034190;28;20494;-75
2023/05/01 05:57:56;;;;;;;5.45;4.82;;;;;;;9.02;100.00;101651.09;5034358;28;20403;-77
2023/05/01 06:00:22;;;;;;;8.68;4.50;;;;;;;9.10;100.00;101645.22;5034335;28;20033;-76
2023/05/01 06:02:47;;;;;;;9.38;4.57;;;;;;;9.22;100.00;101648.81;5034915;28;20029;-76
2023/05/01 06:05:12;;;;;;;11.48;4.45;;;;;;;9.32;100.00;101650.69;5034354;28;20451;-76
2023/05/01 06:07:38;;;;;;;7.10;4.50;;;;;;;9.40;100.00;101650.13;5034680;28;20033;-75
2023/05/01 06:10:04;;;;;;;6.45;4.40;;;;;;;9.46;100.00;101649.66;5016538;28;20069;-75
2023/05/01 06:12:30;;;;;;;8.95;4.45;;;;;;;9.54;100.00;101643.81;5034970;28;20137;-75
2023/05/01 06:14:56;;;;;;;9.20;4.70;;;;;;;9.60;100.00;101647.81;5034167;28;20037;-74
2023/05/01 06:17:23;;;;;;;9.38;4.47;;;;;;;9.65;100.00;101645.69;5032899;28;20494;-76
2023/05/01 06:19:51;;;;;;;6.63;4.32;;;;;;;9.69;100.00;101637.38;5033004;28;20064;-76
2023/05/01 06:22:17;;;;;;;6.22;4.22;;;;;;;9.74;100.00;101647.66;5033973;28;20048;-76
2023/05/01 06:24:42;;;;;;;11.88;3.78;;;;;;;9.76;100.00;101648.38;5034526;28;20036;-76
2023/05/01 06:27:12;;;;;;;15.50;8.10;;;;;;;9.79;100.00;101647.31;5034767;28;20079;-78
2023/05/01 06:29:38;;;;;;;8.65;4.18;;;;;;;9.83;100.00;101654.94;5016815;28;20041;-76
2023/05/01 06:32:04;;;;;;;7.30;4.13;;;;;;;9.85;100.00;101644.19;5032984;28;20097;-76
2023/05/01 06:34:29;;;;;;;7.03;4.05;;;;;;;9.84;100.00;101650.47;5032968;28;20393;-77
2023/05/01 06:36:55;;;;;;;13.10;4.50;;;;;;;9.88;100.00;101652.78;5034136;28;20034;-75
2023/05/01 06:39:20;;;;;;;9.73;4.20;;;;;;;9.87;100.00;101648.44;5033165;28;20119;-77
2023/05/01 06:41:46;;;;;;;6.90;4.10;;;;;;;9.92;100.00;101648.09;5031414;28;20114;-78
2023/05/01 06:44:12;;;;;;;6.43;4.20;;;;;;;9.97;100.00;101648.59;5033423;28;20033;-76
2023/05/01 06:46:37;;;;;;;8.43;4.07;;;;;;;10.00;100.00;101647.50;5033294;28;20030;-77
2023/05/01 06:49:02;;;;;;;13.77;4.80;;;;;;;10.06;100.00;101641.72;5033559;28;20037;-78
2023/05/01 06:51:29;;;;;;;13.82;4.43;;;;;;;10.12;100.00;101646.59;5033574;28;20116;-76
2023/05/01 06:53:54;;;;;;;6.50;4.20;;;;;;;10.20;100.00;101643.34;5033175;28;20033;-76
2023/05/01 06:56:20;;;;;;;11.30;4.43;;;;;;;10.27;100.00;101641.91;5033094;28;20037;-77
2023/05/01 06:58:45;;;;;;;7.63;4.78;;;;;;;10.34;100.00;101644.97;5033519;28;20065;-76
2023/05/01 07:01:11;;;;;;;14.63;4.78;;;;;;;10.36;100.00;101648.34;5032959;28;20467;-76
2023/05/01 07:03:36;;;;;;;9.68;4.20;;;;;;;10.38;100.00;101647.28;5033961;28;20352;-77
2023/05/01 07:06:02;;;;;;;8.00;4.57;;;;;;;10.46;100.00;101653.81;5033187;28;20032;-76
2023/05/01 07:08:27;;;;;;;6.72;4.25;;;;;;;10.51;100.00;101652.50;5032785;28;20400;-76
2023/05/01 07:10:52;;;;;;;6.30;4.00;;;;;;;10.55;100.00;101646.00;5033188;28;20188;-77
2023/05/01 07:13:18;;;;;;;10.65;4.20;;;;;;;10.59;100.00;101643.94;5032963;28;20037;-76
2023/05/01 07:15:44;;;;;;;12.68;4.45;;;;;;;10.65;100.00;101646.09;5032748;28;20171;-76
2023/05/01 07:18:11;;;;;;;7.35;4.53;;;;;;;10.67;100.00;101648.66;5032642;28;20122;-76
2023/05/01 07:20:36;;;;;;;11.55;5.63;;;;;;;10.74;100.00;101648.03;5032620;28;20134;-74
2023/05/01 07:23:02;;;;;;;23.42;5.38;;;;;;;10.81;100.00;101647.56;5031486;28;20244;-75
2023/05/01 07:25:28;;;;;;;8.48;4.40;;;;;;;10.84;100.00;101642.84;5031711;28;20036;-76
2023/05/01 07:27:53;;;;;;;13.15;5.20;;;;;;;10.92;100.00;101640.41;5032848;28;20047;-75
2023/05/01 07:30:19;;;;;;;9.38;4.35;;;;;;;11.00;100.00;101637.16;5033535;28;20439;-76
2023/05/01 07:32:44;;;;;;;7.22;4.72;;;;;;;11.13;100.00;101638.84;5031384;28;20029;-75
2023/05/01 07:35:10;;;;;;;8.02;4.32;;;;;;;11.31;100.00;101650.66;5031511;28;20076;-75
2023/05/01 07:37:36;;;;;;;9.43;4.47;;;;;;;11.56;100.00;101646.03;5032165;28;20479;-77
2023/05/01 07:40:01;;;;;;;9.27;5.00;;;;;;;11.86;100.00;101647.97;5031691;28;20116;-78
2023/05/01 07:42:26;;;;;;;10.50;4.57;;;;;;;12.14;100.00;101648.34;5032217;28;20347;-76
2023/05/01 07:44:52;;;;;;;10.60;4.60;;;;;;;12.33;100.00;101644.94;5031292;28;20088;-76
2023/05/01 07:47:18;;;;;;;9.32;4.22;;;;;;;12.41;100.00;101645.16;5032483;28;20053;-75
2023/05/01 07:49:43;;;;;;;9.70;4.40;;;;;;;12.46;100.00;101647.44;5032204;28;20084;-74
2023/05/01 07:52:09;;;;;;;9.45;5.70;;;;;;;12.46;100.00;101647.44;5032792;28;20092;-76
2023/05/01 07:54:35;;;;;;;7.68;4.38;;;;;;;12.39;100.00;101640.91;5036232;28;20044;-77
2023/05/01 07:57:00;;;;;;;7.97;4.57;;;;;;;12.41;100.00;101644.31;5036925;28;20052;-74
2023/05/01 07:59:26;;;;;;;7.45;4.47;;;;;;;12.49;100.00;101647.16;5036220;28;20450;-76
2023/05/01 08:01:52;;;;;;;10.20;4.70;;;;;;;12.60;100.00;101655.09;5036236;28;20025;-76
2023/05/01 08:04:17;;;;;;;7.45;4.65;;;;;;;12.70;100.00;101650.66;5036669;28;20038;-75
2023/05/01 08:06:43;;;;;;;9.35;4.38;;;;;;;12.85;100.00;101653.81;5036135;28;20447;-75
2023/05/01 08:09:08;;;;;;;10.95;5.20;;;;;;;13.03;100.00;101654.03;5034985;28;20171;-77
2023/05/01 08:11:34;;;;;;;8.07;4.35;;;;;;;13.27;100.00;101651.97;5034585;28;20057;-76
2023/05/01 08:13:59;;;;;;;9.52;4.13;;;;;;;13.48;100.00;101652.75;5035695;28;20025;-75
2023/05/01 08:16:26;;;;;;;12.68;4.57;;;;;;;13.58;100.00;101661.66;5035371;28;20033;-77
2023/05/01 08:18:51;;;;;;;10.05;4.90;;;;;;;13.62;100.00;101661.38;5036330;28;20033;-78
2023/05/01 08:21:16;;;;;;;11.50;4.22;;;;;;;13.63;100.00;101653.22;5036707;28;20039;-77
2023/05/01 08:23:42;;;;;;;13.18;4.45;;;;;;;13.51;100.00;101660.50;5034775;28;20108;-78
2023/05/01 08:26:07;;;;;;;11.80;4.22;;;;;;;13.34;100.00;101659.31;5036480;28;20115;-79
2023/05/01 08:28:36;;;;;;;9.68;4.57;;;;;;;13.19;100.00;101661.50;5035561;28;20036;-78
2023/05/01 08:31:02;;;;;;;10.43;4.47;;;;;;;13.11;100.00;101663.19;5036002;28;20041;-77
2023/05/01 08:33:28;;;;;;;7.63;4.82;;;;;;;12.95;100.00;101669.88;5035371;28;20042;-78
2023/05/01 08:35:53;;;;;;;11.43;5.13;;;;;;;12.79;100.00;101666.84;5036433;28;20037;-79
2023/05/01 08:38:18;;;;;;;11.02;5.68;;;;;;;12.63;100.00;101670.84;5035761;28;20033;-78
2023/05/01 08:40:52;;;;;;;10.52;5.55;;;;;;;12.52;100.00;101671.78;5036020;28;20033;-79
2023/05/01 08:43:17;;;;;;;15.55;5.68;;;;;;;12.47;100.00;101681.16;5036293;28;20308;-78
2023/05/01 08:45:45;;;;;;;11.02;5.50;;;;;;;12.39;100.00;101686.28;5036052;28;20394;-79
2023/05/01 08:48:11;;;;;;;10.90;5.38;;;;;;;12.30;100.00;101687.91;5035845;28;20064;-80
2023/05/01 08:50:38;;;;;;;8.52;5.00;;;;;;;12.22;100.00;101683.22;5035713;28;20030;-78
2023/05/01 08:53:05;;;;;;;20.60;5.60;;;;;;;12.20;100.00;101690.53;5035636;28;20033;-78
2023/05/01 08:55:31;;;;;;;11.07;5.60;;;;;;;12.19;100.00;101688.81;5035152;28;20483;-78
2023/05/01 08:57:58;;;;;;;12.48;5.57;;;;;;;12.15;100.00;101695.38;5035461;28;20076;-79
2023/05/01 09:00:24;;;;;;;17.75;5.25;;;;;;;12.07;100.00;101689.84;5035160;28;20036;-75
2023/05/01 09:02:51;;;;;;;12.50;5.90;;;;;;;11.99;100.00;101696.66;5035448;28;20057;-78
2023/05/01 09:05:20;;;;;;;10.80;5.53;;;;;;;11.96;100.00;101698.75;5034412;28;20041;-77
2023/05/01 09:07:46;;;;;;;8.98;6.03;;;;;;;11.94;100.00;101698.00;5035861;28;20285;-77
2023/05/01 09:10:14;;;;;;;16.45;5.90;;;;;;;11.87;100.00;101697.66;5035109;28;20430;-77
2023/05/01 09:12:41;;;;;;;13.80;6.70;;;;;;;11.87;100.00;101699.47;5035448;28;20108;-76
2023/05/01 09:15:07;;;;;;;11.77;6.25;;;;;;;11.76;100.00;101705.69;5035530;28;20517;-76
2023/05/01 09:17:33;;;;;;;13.70;6.88;;;;;;;11.57;100.00;101707.19;5035199;28;20033;-76
2023/05/01 09:20:01;;;;;;;14.18;7.25;;;;;;;11.39;100.00;101714.00;5034429;28;20068;-75
2023/05/01 09:22:29;;;;;;;12.55;6.50;;;;;;;11.21;100.00;101721.63;5034727;28;20036;-75
2023/05/01 09:24:55;;;;;;;12.90;6.65;;;;;;;11.05;100.00;101714.03;5035017;28;20117;-75
2023/05/01 09:27:21;;;;;;;13.23;7.30;;;;;;;10.94;100.00;101715.72;5035448;28;20464;-77
2023/05/01 09:29:47;;;;;;;13.60;6.85;;;;;;;10.88;100.00;101721.53;5035461;28;20056;-76
2023/05/01 09:32:20;;;;;;;12.60;6.63;;;;;;;10.85;100.00;101723.56;5035391;28;20075;-76
2023/05/01 09:34:47;;;;;;;15.07;7.10;;;;;;;10.77;100.00;101726.81;5034700;28;20029;-76
2023/05/01 09:37:32;;;;;;;12.30;7.10;;;;;;;10.69;100.00;101732.75;5034894;28;20029;-75
2023/05/01 09:40:05;;;;;;;19.52;7.47;;;;;;;10.62;100.00;101733.34;5034843;28;20040;-76
2023/05/01 09:42:32;;;;;;;20.45;7.55;;;;;;;10.54;100.00;101733.94;5034436;28;20033;-76
2023/05/01 09:44:59;;;;;;;13.85;7.32;;;;;;;10.47;100.00;101730.03;5034480;28;20048;-77
2023/05/01 09:47:28;;;;;;;21.63;8.70;;;;;;;10.40;100.00;101734.94;5033115;28;20041;-76
2023/05/01 09:49:55;;;;;;;13.18;7.60;;;;;;;10.30;100.00;101734.78;5033968;28;20368;-76
2023/05/01 09:52:21;;;;;;;13.85;8.32;;;;;;;10.21;100.00;101738.97;5033885;28;20497;-76
2023/05/01 09:54:46;;;;;;;16.48;7.53;;;;;;;10.16;100.00;101737.63;5034106;28;20112;-76
2023/05/01 09:57:12;;;;;;;13.88;8.05;;;;;;;10.17;100.00;101745.47;5034401;28;20036;-75
2023/05/01 09:59:38;;;;;;;20.67;8.75;;;;;;;10.22;100.00;101745.13;5034350;28;20040;-76
2023/05/01 10:02:03;;;;;;;13.95;8.63;;;;;;;10.32;100.00;101742.66;5034112;28;20475;-77
2023/05/01 10:04:35;;;;;;;17.33;8.50;;;;;;;10.45;100.00;101740.78;5034002;28;20519;-76
2023/05/01 10:07:11;;;;;;;;;;;;;;;10.54;100.00;101741.91;5034092;28;20373;-77
2023/05/01 10:09:37;;;;;;;13.10;7.97;;;;;;;10.58;100.00;101744.22;5033832;28;19916;-77
2023/05/01 10:12:02;;;;;;;19.17;8.55;;;;;;;10.63;100.00;101746.53;5033888;28;20053;-77
2023/05/01 10:14:29;;;;;;;16.73;8.57;;;;;;;10.69;100.00;101742.53;5034471;28;20030;-78
2023/05/01 10:16:57;;;;;;;17.83;8.32;;;;;;;10.75;100.00;101742.06;5032590;28;20030;-77
2023/05/01 10:19:22;;;;;;;13.15;8.70;;;;;;;10.81;100.00;101746.06;5033147;28;20479;-77
2023/05/01 10:21:48;;;;;;;12.05;8.20;;;;;;;10.87;100.00;101746.44;5032562;28;20038;-77
2023/05/01 10:24:15;;;;;;;12.52;8.50;;;;;;;10.90;100.00;101748.03;5033265;28;20037;-77
2023/05/01 10:26:42;;;;;;;14.05;8.20;;;;;;;10.95;100.00;101743.19;5033507;28;20068;-76
2023/05/01 10:29:08;;;;;;;14.68;7.60;;;;;;;10.94;100.00;101742.34;5033658;28;20037;-77
2023/05/01 10:31:34;;;;;;;13.85;7.32;;;;;;;10.97;100.00;101745.72;5033395;28;20030;-77
2023/05/01 10:34:00;;;;;;;13.07;7.72;;;;;;;10.97;100.00;101748.38;5033444;28;20452;-76
2023/05/01 10:36:33;;;;;;;11.45;7.00;;;;;;;10.96;100.00;101750.22;5015879;28;20033;-77
2023/05/01 10:38:59;;;;;;;12.63;7.43;;;;;;;10.89;100.00;101749.81;5033045;28;20033;-77
2023/05/01 10:42:05;;;;;;;11.88;7.35;;;;;;;10.91;100.00;101752.38;5032620;28;20038;-77
2023/05/01 10:44:31;;;;;;;12.05;6.95;;;;;;;10.96;100.00;101752.88;5032106;28;20034;-76
2023/05/01 10:47:29;;;;;;;11.95;6.97;;;;;;;11.00;100.00;101750.81;5129106;27;20390;-76
2023/05/01 10:50:11;;;;;;;12.32;6.85;;;;;;;11.13;100.00;101746.22;5128804;27;20039;-76
2023/05/01 10:53:16;;;;;;;10.75;6.68;;;;;;;11.35;100.00;101742.72;5129347;27;20027;-77
2023/05/01 10:55:46;;;;;;;10.65;6.32;;;;;;;11.65;100.00;101738.56;5128550;27;20039;-77
2023/05/01 10:58:12;;;;;;;10.80;6.40;;;;;;;11.95;100.00;101740.56;5145922;27;20105;-75
2023/05/01 11:00:38;;;;;;;9.35;5.90;;;;;;;12.31;100.00;101743.81;5149472;27;20031;-76
2023/05/01 11:03:23;;;;;;;24.20;6.88;;;;;;;12.66;100.00;101731.16;5148379;27;20084;-78
2023/05/01 11:06:03;;;;;;;9.45;5.72;;;;;;;12.97;100.00;101737.38;5149354;27;20023;-75
2023/05/01 11:08:33;;;;;;;13.43;5.90;;;;;;;13.23;100.00;101732.41;5149939;27;20031;-77
2023/05/01 11:11:20;;;;;;;12.05;6.00;;;;;;;13.47;100.00;101728.59;5149475;27;20038;-77
2023/05/01 11:14:10;;;;;;;10.52;5.50;;;;;;;13.64;100.00;101728.91;5149443;27;20033;-75
2023/05/01 11:16:38;;;;;;;10.35;6.25;;;;;;;13.63;100.00;101725.41;5150001;27;20037;-76
2023/05/01 11:19:04;;;;;;;15.95;5.63;;;;;;;13.77;100.00;101720.63;5149354;27;20030;-76
2023/05/01 11:21:33;;;;;;;8.02;4.93;;;;;;;13.94;100.00;101727.97;5148197;27;20023;-75
2023/05/01 11:24:08;;;;;;;12.85;5.75;;;;;;;14.02;100.00;101721.94;5149157;27;20061;-75